Time;durP1;ratioP1;P1;durP2;ratioP2;P2;SDS_P1;SDS_P2;PMS_P1;PMS_P2;Temp;Humidity;BMP_temperature;BMP_pressure;BME280_temperature;BME280_humidity;BME280_pressure;Samples;Min_cycle;Max_cycle;Signal;HPM_P1;HPM_P2
2022/12/28 00:01:18;;;;;;;1.00;1.00;;;;;;;-2.23;99.37;98616.13;4975187;28;20161;-83
2022/12/28 00:03:46;;;;;;;0.93;0.93;;;;;;;-2.26;99.53;98611.16;4958456;28;20071;-84
2022/12/28 00:06:16;;;;;;;0.80;0.80;;;;;;;-2.27;99.66;98604.22;4958094;28;20054;-84
2022/12/28 00:08:43;;;;;;;1.00;1.00;;;;;;;-2.23;99.92;98604.69;4975641;28;20051;-83
2022/12/28 00:11:13;;;;;;;0.80;0.80;;;;;;;-2.24;99.33;98597.78;4975915;28;20141;-83
2022/12/28 00:13:57;;;;;;;0.90;0.90;;;;;;;-2.27;99.54;98604.22;4978804;28;20082;-82
2022/12/28 00:16:29;;;;;;;0.90;0.90;;;;;;;-2.27;99.73;98583.06;4977140;28;20046;-83
2022/12/28 00:18:58;;;;;;;0.90;0.90;;;;;;;-2.28;99.31;98584.09;4974730;28;20460;-83
2022/12/28 00:21:26;;;;;;;0.95;0.95;;;;;;;-2.25;99.19;98586.38;4974400;28;20065;-82
2022/12/28 00:23:55;;;;;;;0.90;0.90;;;;;;;-2.28;99.02;98586.72;4941765;28;20078;-82
2022/12/28 00:26:24;;;;;;;0.95;0.95;;;;;;;-2.26;99.01;98584.72;4974765;28;20051;-83
2022/12/28 00:28:51;;;;;;;0.70;0.70;;;;;;;-2.26;98.97;98574.13;4973381;28;20051;-82
2022/12/28 00:31:26;;;;;;;0.98;0.98;;;;;;;-2.27;98.98;98580.44;4974382;28;20055;-83
2022/12/28 00:33:54;;;;;;;0.80;0.80;;;;;;;-2.28;98.93;98570.88;4974813;28;20129;-83
2022/12/28 00:36:21;;;;;;;0.85;0.85;;;;;;;-2.27;98.86;98572.50;4974235;28;20514;-83
2022/12/28 00:38:49;;;;;;;0.75;0.75;;;;;;;-2.24;98.63;98576.63;4974653;28;20102;-83
2022/12/28 00:41:16;;;;;;;0.90;0.90;;;;;;;-2.25;98.74;98567.88;4973485;28;20438;-84
2022/12/28 00:43:44;;;;;;;0.90;0.90;;;;;;;-2.25;98.59;98567.88;4974347;28;20054;-84
2022/12/28 00:46:12;;;;;;;1.00;1.00;;;;;;;-2.27;98.48;98559.28;4974131;28;20055;-84
2022/12/28 00:48:39;;;;;;;1.00;1.00;;;;;;;-2.29;98.27;98555.97;4956524;28;20101;-84
2022/12/28 00:51:11;;;;;;;1.00;1.00;;;;;;;-2.29;98.21;98552.53;4956953;28;20061;-83
2022/12/28 00:53:40;;;;;;;0.90;0.90;;;;;;;-2.29;98.45;98555.97;4974231;28;20054;-84
2022/12/28 00:56:08;;;;;;;0.90;0.90;;;;;;;-2.29;98.31;98552.53;4957002;28;20046;-84
2022/12/28 00:58:35;;;;;;;0.82;0.82;;;;;;;-2.29;98.42;98558.63;4974008;28;20078;-83
2022/12/28 01:01:04;;;;;;;0.98;0.98;;;;;;;-2.26;98.46;98555.63;4957162;28;20058;-83
2022/12/28 01:03:31;;;;;;;1.00;1.00;;;;;;;-2.25;98.25;98559.13;4957177;28;20145;-84
2022/12/28 01:05:58;;;;;;;0.80;0.80;;;;;;;-2.28;98.13;98554.16;4973879;28;20086;-83
2022/12/28 01:08:25;;;;;;;0.93;0.93;;;;;;;-2.27;98.15;98561.13;4972609;28;20051;-84
2022/12/28 01:10:52;;;;;;;0.80;0.80;;;;;;;-2.30;98.03;98553.53;4972666;28;20429;-84
2022/12/28 01:13:19;;;;;;;0.88;0.88;;;;;;;-2.28;97.94;98557.66;4972940;28;20533;-84
2022/12/28 01:15:46;;;;;;;0.90;0.90;;;;;;;-2.32;97.99;98545.75;4974286;28;20181;-84
2022/12/28 01:18:14;;;;;;;0.90;0.90;;;;;;;-2.27;97.87;98548.72;4957333;28;20190;-85
2022/12/28 01:20:41;;;;;;;0.82;0.82;;;;;;;-2.29;97.88;98534.03;4974683;28;20047;-83
2022/12/28 01:23:08;;;;;;;0.88;0.88;;;;;;;-2.27;97.42;98545.25;4974323;28;20046;-83
2022/12/28 01:25:36;;;;;;;1.00;1.00;;;;;;;-2.27;97.80;98532.03;4972124;28;20061;-83
2022/12/28 01:28:17;;;;;;;0.90;0.90;;;;;;;-2.28;97.78;98533.00;4973562;28;20046;-83
2022/12/28 01:30:44;;;;;;;0.90;0.90;;;;;;;-2.28;97.92;98528.56;4973609;28;20054;-85
2022/12/28 01:33:11;;;;;;;0.80;0.80;;;;;;;-2.34;97.66;98526.59;4973544;28;20510;-84
2022/12/28 01:35:38;;;;;;;1.00;1.00;;;;;;;-2.33;97.44;98532.72;4955879;28;20061;-83
2022/12/28 01:38:05;;;;;;;0.90;0.90;;;;;;;-2.33;97.71;98541.50;4972697;28;20070;-83
2022/12/28 01:40:32;;;;;;;0.80;0.80;;;;;;;-2.33;97.36;98541.50;4955871;28;20479;-84
2022/12/28 01:43:06;;;;;;;0.75;0.75;;;;;;;-2.34;97.42;98537.19;4973303;28;20158;-84
2022/12/28 01:45:33;;;;;;;0.80;0.80;;;;;;;-2.38;97.56;98532.41;4971780;28;20046;-83
2022/12/28 01:48:00;;;;;;;0.85;0.85;;;;;;;-2.37;97.52;98524.31;4958911;28;20055;-83
2022/12/28 01:50:27;;;;;;;1.00;1.00;;;;;;;-2.40;97.51;98529.97;4989982;28;20084;-83
2022/12/28 01:52:58;;;;;;;1.00;1.00;;;;;;;-2.36;97.37;98523.31;4992564;28;20070;-84
2022/12/28 01:55:29;;;;;;;0.80;0.80;;;;;;;-2.33;97.59;98522.13;4959027;28;20077;-84
2022/12/28 01:58:04;;;;;;;0.80;0.80;;;;;;;-2.33;97.18;98520.34;4958887;28;20054;-82
2022/12/28 02:00:32;;;;;;;0.57;0.57;;;;;;;-2.36;97.31;98510.09;4992146;28;20062;-83
2022/12/28 02:03:02;;;;;;;0.85;0.85;;;;;;;-2.35;97.33;98509.13;4974960;28;20481;-83
2022/12/28 02:05:37;;;;;;;0.80;0.80;;;;;;;-2.32;97.29;98514.03;4975029;28;20057;-83
2022/12/28 02:08:18;;;;;;;0.80;0.80;;;;;;;-2.33;97.34;98516.84;4975134;28;20054;-83
2022/12/28 02:10:45;;;;;;;0.77;0.77;;;;;;;-2.46;97.30;98491.00;4974252;28;20150;-84
2022/12/28 02:13:15;;;;;;;0.60;0.60;;;;;;;-2.31;97.33;98512.22;4974340;28;20101;-83
2022/12/28 02:15:43;;;;;;;0.90;0.90;;;;;;;-2.29;97.15;98511.06;4959052;28;20101;-83
2022/12/28 02:18:12;;;;;;;0.80;0.80;;;;;;;-2.40;97.21;98499.06;4974450;28;20057;-83
2022/12/28 02:20:39;;;;;;;0.90;0.90;;;;;;;-2.32;97.12;98505.31;4974539;28;20055;-83
2022/12/28 02:23:14;;;;;;;0.90;0.90;;;;;;;-2.34;97.02;98508.09;4992011;28;20054;-82
2022/12/28 02:25:42;;;;;;;0.80;0.80;;;;;;;-2.32;97.31;98514.03;4991630;28;20082;-83
2022/12/28 02:28:43;;;;;;;0.80;0.80;;;;;;;-2.30;97.22;98516.53;4974939;28;20058;-84
2022/12/28 02:31:20;;;;;;;0.90;0.90;;;;;;;-2.30;97.06;98516.53;4991887;28;20078;-83
2022/12/28 02:34:12;;;;;;;0.80;0.80;;;;;;;-2.30;97.07;98514.69;4958387;28;20140;-83
2022/12/28 02:36:45;;;;;;;0.80;0.80;;;;;;;-2.28;96.99;98518.00;4991456;28;20077;-83
2022/12/28 02:39:31;;;;;;;0.90;0.90;;;;;;;-2.30;96.85;98509.41;4958551;28;20145;-84
2022/12/28 02:42:00;;;;;;;1.00;1.00;;;;;;;-2.30;96.84;98517.34;4974627;28;20065;-84
2022/12/28 02:50:05;;;;;;;0.90;0.90;;;;;;;-2.31;96.72;98514.88;4960299;28;20380;-83
2022/12/28 02:53:06;;;;;;;0.90;0.90;;;;;;;-2.29;96.80;98516.34;4974979;28;20046;-82
2022/12/28 02:56:14;;;;;;;0.80;0.80;;;;;;;-2.32;96.90;98516.69;4961492;28;20068;-83
2022/12/28 02:58:48;;;;;;;0.80;0.80;;;;;;;-2.31;96.79;98514.88;4944250;28;20618;-82
2022/12/28 03:01:35;;;;;;;0.90;0.90;;;;;;;-2.32;96.61;98508.75;4974341;28;20050;-82
2022/12/28 03:04:23;;;;;;;0.85;0.85;;;;;;;-2.34;96.49;98509.94;4974239;28;20054;-82
2022/12/28 03:09:53;;;;;;;0.98;0.98;;;;;;;-2.43;96.65;98504.69;4982898;28;20044;-82
2022/12/28 03:12:20;;;;;;;0.80;0.80;;;;;;;-2.42;96.59;98502.88;4973816;28;20153;-82
2022/12/28 03:14:52;;;;;;;0.90;0.90;;;;;;;-2.43;96.60;98509.13;4991037;28;20512;-84
2022/12/28 03:31:31;;;;;;;0.90;0.90;;;;;;;-2.33;96.67;98496.56;4976207;28;20105;-84
2022/12/28 03:34:07;;;;;;;0.77;0.77;;;;;;;-2.33;96.28;98501.00;4957119;28;20064;-83
2022/12/28 03:37:14;;;;;;;0.90;0.90;;;;;;;-2.34;96.53;98502.00;4972649;28;20050;-82
2022/12/28 03:39:46;;;;;;;1.00;1.00;;;;;;;-2.37;96.61;98497.88;4973234;28;20641;-84
2022/12/28 03:45:19;;;;;;;0.80;0.80;;;;;;;-2.38;96.85;98484.84;4973154;28;20108;-83
2022/12/28 03:48:08;;;;;;;0.80;0.80;;;;;;;-2.40;96.72;98490.31;4960093;28;20402;-82
2022/12/28 03:50:37;;;;;;;0.80;0.80;;;;;;;-2.38;96.69;98480.41;4973304;28;20398;-82
2022/12/28 03:53:07;;;;;;;0.93;0.93;;;;;;;-2.43;96.94;98482.72;4957860;28;20543;-82
2022/12/28 03:55:38;;;;;;;1.00;1.00;;;;;;;-2.43;97.24;98473.00;4957416;28;20477;-82
2022/12/28 03:58:06;;;;;;;0.90;0.90;;;;;;;-2.48;97.18;98485.06;4974032;28;20093;-81
2022/12/28 04:00:33;;;;;;;0.80;0.80;;;;;;;-2.44;97.25;98486.34;4990408;28;20101;-83
2022/12/28 04:03:01;;;;;;;0.93;0.93;;;;;;;-2.46;97.09;98480.41;4970996;28;20108;-83
2022/12/28 04:05:28;;;;;;;0.77;0.77;;;;;;;-2.44;97.22;98491.66;4962030;28;20390;-83
2022/12/28 04:07:56;;;;;;;0.70;0.70;;;;;;;-2.44;97.27;98489.81;4980809;28;20180;-84
2022/12/28 04:10:23;;;;;;;0.75;0.75;;;;;;;-2.42;97.24;98484.38;4941569;28;20046;-83
2022/12/28 04:12:55;;;;;;;0.93;0.93;;;;;;;-2.42;97.23;98476.44;4971830;28;20146;-83
2022/12/28 04:16:00;;;;;;;0.80;0.80;;;;;;;-2.41;97.34;98483.38;4966806;28;20058;-83
2022/12/28 04:18:32;;;;;;;0.90;0.90;;;;;;;-2.45;96.86;98480.25;4964132;28;20050;-82
2022/12/28 04:21:00;;;;;;;0.93;0.93;;;;;;;-2.47;96.90;98476.16;4956341;28;20088;-89
2022/12/28 04:23:28;;;;;;;0.93;0.93;;;;;;;-2.45;97.07;98474.97;4951242;28;20403;-86
2022/12/28 04:26:13;;;;;;;0.80;0.80;;;;;;;-2.43;97.11;98472.13;4961927;28;20421;-86
2022/12/28 04:28:42;;;;;;;0.93;0.93;;;;;;;-2.43;97.02;98472.13;4968195;28;20058;-85
2022/12/28 04:31:21;;;;;;;0.82;0.82;;;;;;;-2.44;96.79;98473.16;4968635;28;20062;-84
2022/12/28 04:33:57;;;;;;;0.80;0.80;;;;;;;-2.44;97.02;98475.78;4954845;28;20054;-85
2022/12/28 04:36:27;;;;;;;0.80;0.80;;;;;;;-2.48;96.70;98466.56;4953925;28;20550;-85
2022/12/28 04:38:55;;;;;;;0.80;0.80;;;;;;;-2.45;96.80;98467.03;4971282;28;20052;-85
2022/12/28 04:41:22;;;;;;;0.90;0.90;;;;;;;-2.47;96.62;98466.38;4974334;28;20528;-85
2022/12/28 04:43:49;;;;;;;0.80;0.80;;;;;;;-2.49;96.86;98457.81;4990313;28;20101;-84
2022/12/28 04:46:16;;;;;;;0.98;0.98;;;;;;;-2.45;96.68;98464.41;4990904;28;20097;-86
2022/12/28 04:48:44;;;;;;;0.80;0.80;;;;;;;-2.49;96.68;98464.91;4648913;28;10000525;-84
2022/12/28 04:51:23;;;;;;;0.95;0.95;;;;;;;-2.50;96.67;98461.47;4989084;28;20054;-86
2022/12/28 04:53:51;;;;;;;0.90;0.90;;;;;;;-2.46;96.60;98468.03;4953675;28;20055;-85
2022/12/28 04:56:20;;;;;;;0.80;0.80;;;;;;;-2.49;96.66;98463.09;4957188;28;20053;-87
2022/12/28 04:59:12;;;;;;;0.90;0.90;;;;;;;-2.47;96.65;98462.94;4944709;28;20141;-86
2022/12/28 05:01:39;;;;;;;0.90;0.90;;;;;;;-2.60;96.64;98449.47;4987531;28;20120;-86
2022/12/28 05:04:12;;;;;;;0.90;0.90;;;;;;;-2.56;96.69;98456.03;4982640;28;20045;-86
2022/12/28 05:06:41;;;;;;;0.90;0.90;;;;;;;-2.62;96.82;98445.16;4983550;28;20054;-84
2022/12/28 05:09:11;;;;;;;0.90;0.90;;;;;;;-2.50;96.67;98456.19;4982317;28;20572;-86
2022/12/28 05:11:40;;;;;;;1.02;1.02;;;;;;;-2.58;96.63;98450.94;4962213;28;20404;-85
2022/12/28 05:14:07;;;;;;;1.00;1.00;;;;;;;-2.60;96.91;98444.19;4980157;28;20065;-85
2022/12/28 05:16:34;;;;;;;0.80;0.80;;;;;;;-2.48;96.75;98469.19;4986683;28;20054;-86
2022/12/28 05:19:02;;;;;;;0.98;0.98;;;;;;;-2.55;97.10;98460.34;4992941;28;20200;-85
2022/12/28 05:21:29;;;;;;;0.90;0.90;;;;;;;-2.46;96.84;98470.66;4994793;28;20046;-85
2022/12/28 05:24:00;;;;;;;1.00;1.00;;;;;;;-2.51;96.72;98465.09;4962064;28;20062;-86
2022/12/28 05:26:28;;;;;;;0.90;0.90;;;;;;;-2.53;96.91;98455.69;4976188;28;20117;-85
2022/12/28 05:28:56;;;;;;;0.80;0.80;;;;;;;-2.53;96.83;98455.69;4976140;28;20145;-85
2022/12/28 05:31:23;;;;;;;0.90;0.90;;;;;;;-2.45;96.84;98467.03;4975567;28;20073;-85
2022/12/28 05:33:51;;;;;;;1.00;1.00;;;;;;;-2.60;96.69;98454.75;4975860;28;20424;-86
2022/12/28 05:36:35;;;;;;;1.00;1.00;;;;;;;-2.51;96.70;98469.53;4963909;28;20049;-84
2022/12/28 05:39:03;;;;;;;0.90;0.90;;;;;;;-2.52;96.49;98476.66;4975648;28;20050;-85
2022/12/28 05:41:30;;;;;;;0.90;0.90;;;;;;;-2.51;96.65;98466.91;4974990;28;20086;-85
2022/12/28 05:43:58;;;;;;;0.80;0.80;;;;;;;-2.46;96.60;98472.50;4993317;28;20059;-85
2022/12/28 05:46:28;;;;;;;1.00;1.00;;;;;;;-2.46;96.59;98470.66;4993107;28;20042;-85
2022/12/28 05:48:56;;;;;;;0.90;0.90;;;;;;;-2.46;96.58;98477.78;4974770;28;20073;-84
2022/12/28 05:51:25;;;;;;;0.90;0.90;;;;;;;-2.48;96.34;98475.31;4993417;28;20082;-85
2022/12/28 05:53:53;;;;;;;0.80;0.80;;;;;;;-2.48;96.53;98477.97;4975680;28;20571;-85
2022/12/28 05:56:26;;;;;;;0.80;0.80;;;;;;;-2.46;96.49;98481.22;4993652;28;20077;-85
2022/12/28 05:59:05;;;;;;;0.80;0.80;;;;;;;-2.46;96.51;98485.72;4976669;28;20061;-85
2022/12/28 06:01:35;;;;;;;0.85;0.85;;;;;;;-2.44;96.59;98481.91;4994869;28;20066;-86
2022/12/28 06:04:07;;;;;;;0.90;0.90;;;;;;;-2.44;96.42;98481.91;4949937;28;20579;-85
2022/12/28 06:06:35;;;;;;;0.77;0.77;;;;;;;-2.42;96.51;98494.94;4998731;28;20098;-85
2022/12/28 06:09:02;;;;;;;0.70;0.70;;;;;;;-2.48;96.55;98477.97;4981895;28;20057;-85
2022/12/28 06:11:30;;;;;;;0.80;0.80;;;;;;;-2.41;96.66;98486.00;4997630;28;20108;-85
2022/12/28 06:13:58;;;;;;;1.00;1.00;;;;;;;-2.41;96.68;98489.47;4997678;28;20057;-86
2022/12/28 06:16:27;;;;;;;0.80;0.80;;;;;;;-2.37;96.75;98491.78;4976206;28;20054;-86
2022/12/28 06:18:58;;;;;;;0.80;0.80;;;;;;;-2.41;96.60;98492.09;4992655;28;20429;-87
2022/12/28 06:21:27;;;;;;;0.93;0.93;;;;;;;-2.40;96.48;98492.97;4992069;28;20082;-86
2022/12/28 06:23:58;;;;;;;0.82;0.82;;;;;;;-2.37;96.53;98491.78;4975044;28;20050;-85
2022/12/28 06:26:27;;;;;;;1.00;1.00;;;;;;;-2.43;96.44;98485.34;4958069;28;20050;-84
2022/12/28 06:28:58;;;;;;;0.80;0.80;;;;;;;-2.38;96.51;98490.13;4991433;28;20444;-86
2022/12/28 06:31:32;;;;;;;0.80;0.80;;;;;;;-2.38;96.50;98495.41;4991784;28;20347;-84
2022/12/28 06:34:01;;;;;;;0.82;0.82;;;;;;;-2.42;96.80;98484.38;4974146;28;20054;-85
2022/12/28 06:36:34;;;;;;;0.80;0.80;;;;;;;-2.37;96.74;98492.59;4974074;28;20133;-85
2022/12/28 06:39:03;;;;;;;0.88;0.88;;;;;;;-2.36;96.74;98490.78;4991449;28;20043;-85
2022/12/28 06:41:33;;;;;;;0.90;0.90;;;;;;;-2.31;96.68;98502.47;4991555;28;20058;-85
2022/12/28 06:44:05;;;;;;;0.90;0.90;;;;;;;-2.38;96.63;98479.56;4991867;28;20038;-85
2022/12/28 06:46:32;;;;;;;1.00;1.00;;;;;;;-2.30;96.44;98498.84;4990885;28;20120;-86
2022/12/28 06:48:59;;;;;;;0.82;0.82;;;;;;;-2.27;96.53;98489.75;4975009;28;20050;-85
2022/12/28 06:51:35;;;;;;;0.90;0.90;;;;;;;-2.24;96.07;98505.25;4974491;28;20081;-85
2022/12/28 06:54:02;;;;;;;0.90;0.90;;;;;;;-2.24;96.32;98499.97;4992138;28;20539;-85
2022/12/28 06:56:32;;;;;;;0.90;0.90;;;;;;;-2.18;96.12;98501.88;4974138;28;20050;-86
2022/12/28 06:59:00;;;;;;;0.80;0.80;;;;;;;-2.22;95.83;98493.50;4991119;28;20528;-86
2022/12/28 07:01:31;;;;;;;0.80;0.80;;;;;;;-2.23;95.47;98491.88;4973694;28;20516;-86
2022/12/28 07:03:59;;;;;;;0.90;0.90;;;;;;;-2.28;95.62;98486.28;4957640;28;20054;-86
2022/12/28 07:06:28;;;;;;;0.88;0.88;;;;;;;-2.24;95.42;98495.50;4991400;28;20493;-87
2022/12/28 07:09:00;;;;;;;0.90;0.90;;;;;;;-2.26;95.49;98499.31;4991705;28;20089;-85
2022/12/28 07:11:27;;;;;;;0.90;0.90;;;;;;;-2.35;95.63;98497.72;4958000;28;20069;-85
2022/12/28 07:13:55;;;;;;;0.80;0.80;;;;;;;-2.24;95.57;98499.97;4978694;28;20046;-86
2022/12/28 07:16:23;;;;;;;0.90;0.90;;;;;;;-2.27;95.47;98498.50;4992611;28;20083;-86
2022/12/28 07:18:50;;;;;;;1.00;1.00;;;;;;;-2.22;95.42;98504.06;4974425;28;20050;-85
2022/12/28 07:21:23;;;;;;;0.90;0.90;;;;;;;-2.23;95.47;98491.88;4991144;28;20072;-85
2022/12/28 07:23:52;;;;;;;0.90;0.90;;;;;;;-2.12;95.26;98513.59;4979051;28;20047;-86
2022/12/28 07:26:23;;;;;;;0.90;0.90;;;;;;;-2.07;95.22;98519.19;4983007;28;20047;-85
2022/12/28 07:28:53;;;;;;;1.00;1.00;;;;;;;-2.07;95.10;98520.00;4978625;28;20054;-85
2022/12/28 07:31:22;;;;;;;0.80;0.80;;;;;;;-2.05;94.94;98509.25;4991856;28;20575;-85
2022/12/28 07:33:51;;;;;;;1.00;1.00;;;;;;;-2.07;94.79;98514.72;4991932;28;20461;-86
2022/12/28 07:36:19;;;;;;;0.90;0.90;;;;;;;-2.07;94.81;98519.19;4991372;28;20491;-86
2022/12/28 07:38:46;;;;;;;0.90;0.90;;;;;;;-2.02;94.97;98514.19;4990890;28;20555;-85
2022/12/28 07:41:18;;;;;;;0.90;0.90;;;;;;;-1.99;94.78;98521.78;4992132;28;20057;-86
2022/12/28 07:43:46;;;;;;;0.70;0.70;;;;;;;-1.95;95.05;98523.06;4990796;28;20108;-85
2022/12/28 07:46:25;;;;;;;0.90;0.90;;;;;;;-1.98;94.88;98510.19;4973380;28;20042;-85
2022/12/28 07:48:57;;;;;;;0.90;0.90;;;;;;;-2.01;94.43;98505.25;4991116;28;20054;-85
2022/12/28 07:51:33;;;;;;;0.80;0.80;;;;;;;-1.97;94.34;98515.31;4942002;28;20054;-86
2022/12/28 07:54:01;;;;;;;0.90;0.90;;;;;;;-1.99;94.02;98509.38;4973901;28;20133;-85
2022/12/28 07:56:29;;;;;;;0.90;0.90;;;;;;;-2.08;94.29;98502.47;4957733;28;20117;-86
2022/12/28 07:58:59;;;;;;;0.80;0.80;;;;;;;-1.98;94.05;98515.47;4957029;28;20056;-86
2022/12/28 08:01:28;;;;;;;0.95;0.95;;;;;;;-1.91;93.91;98511.13;4957942;28;20054;-86
2022/12/28 08:03:58;;;;;;;0.90;0.90;;;;;;;-1.99;93.78;98504.06;4991064;28;20050;-86
2022/12/28 08:06:27;;;;;;;0.82;0.82;;;;;;;-1.97;93.60;98504.72;4990730;28;20053;-85
2022/12/28 08:08:59;;;;;;;0.80;0.80;;;;;;;-1.98;93.84;98502.25;4973279;28;20054;-87
2022/12/28 08:11:30;;;;;;;1.00;1.00;;;;;;;-1.92;93.56;98506.84;4975312;28;20097;-86
2022/12/28 08:13:58;;;;;;;1.00;1.00;;;;;;;-1.93;93.64;98497.25;4977579;28;20565;-86
2022/12/28 08:16:31;;;;;;;0.90;0.90;;;;;;;-1.88;93.44;98491.44;4978106;28;20597;-87
2022/12/28 08:19:00;;;;;;;1.00;1.00;;;;;;;-1.84;93.49;98498.03;4995597;28;20073;-87
2022/12/28 08:21:34;;;;;;;0.85;0.85;;;;;;;-1.76;93.21;98514.66;4994710;28;20046;-87
2022/12/28 08:24:03;;;;;;;1.00;1.00;;;;;;;-1.84;93.05;98503.31;4993907;28;20046;-86
2022/12/28 08:26:33;;;;;;;0.80;0.80;;;;;;;-1.76;93.22;98509.34;4977233;28;20050;-86
2022/12/28 08:29:05;;;;;;;0.85;0.85;;;;;;;-1.85;93.02;98507.78;4994600;28;20054;-85
2022/12/28 08:31:55;;;;;;;0.75;0.75;;;;;;;-1.83;92.92;98519.00;4976982;28;20042;-86
2022/12/28 08:34:25;;;;;;;0.90;0.90;;;;;;;-1.86;93.31;98503.50;4881203;29;20100;-86
2022/12/28 08:36:54;;;;;;;1.00;1.00;;;;;;;-1.76;92.91;98501.41;4880929;29;20052;-86
2022/12/28 08:39:24;;;;;;;0.80;0.80;;;;;;;-1.61;92.51;98511.22;4865890;29;20172;-86
2022/12/28 08:41:53;;;;;;;0.88;0.88;;;;;;;-1.64;92.39;98506.31;4898106;29;20112;-85
2022/12/28 08:44:20;;;;;;;0.90;0.90;;;;;;;-1.79;92.28;98507.06;4896273;29;20448;-87
2022/12/28 08:46:47;;;;;;;1.00;1.00;;;;;;;-1.90;92.64;98502.22;4896186;29;20048;-85
2022/12/28 08:49:15;;;;;;;0.93;0.93;;;;;;;-1.81;92.62;98503.78;4901228;29;20056;-86
2022/12/28 08:51:42;;;;;;;1.10;1.10;;;;;;;-1.75;92.59;98513.66;4895423;29;20049;-87
2022/12/28 08:54:11;;;;;;;0.80;0.80;;;;;;;-1.80;92.80;98517.81;4880312;29;20176;-86
2022/12/28 08:56:41;;;;;;;1.00;1.00;;;;;;;-1.69;92.38;98516.59;4895764;29;20079;-85
2022/12/28 08:59:13;;;;;;;1.00;1.00;;;;;;;-1.70;92.06;98521.03;4864760;29;20075;-87
2022/12/28 09:01:43;;;;;;;0.90;0.90;;;;;;;-1.73;92.27;98512.66;4895692;29;20504;-86
2022/12/28 09:04:16;;;;;;;0.90;0.90;;;;;;;-1.62;92.11;98523.66;4895964;29;20140;-86
2022/12/28 09:06:46;;;;;;;1.00;1.00;;;;;;;-1.56;91.42;98514.97;4896795;29;20144;-85
2022/12/28 09:09:16;;;;;;;0.90;0.90;;;;;;;-1.62;91.11;98515.72;4900368;29;20128;-87
2022/12/28 09:11:43;;;;;;;1.00;1.00;;;;;;;-1.64;90.53;98514.25;4963839;28;20050;-88
2022/12/28 09:14:11;;;;;;;0.90;0.90;;;;;;;-1.70;90.71;98515.75;4994247;28;20054;-86
2022/12/28 09:16:49;;;;;;;1.10;1.10;;;;;;;-1.72;90.57;98511.63;4978865;28;20064;-86
2022/12/28 09:19:16;;;;;;;0.82;0.82;;;;;;;-1.76;90.65;98509.34;4976607;28;20056;-87
2022/12/28 09:21:51;;;;;;;0.93;0.93;;;;;;;-1.78;90.84;98507.91;5002160;28;20114;-88
2022/12/28 09:24:21;;;;;;;0.90;0.90;;;;;;;-1.75;90.85;98512.81;4993779;28;20062;-86
2022/12/28 09:26:51;;;;;;;1.00;1.00;;;;;;;-1.68;90.85;98507.66;4985880;28;20052;-86
2022/12/28 09:29:19;;;;;;;1.00;1.00;;;;;;;-1.67;90.63;98511.94;4993017;28;20054;-86
2022/12/28 09:31:46;;;;;;;1.10;1.10;;;;;;;-1.70;90.64;98513.09;4956939;28;20531;-86
2022/12/28 09:34:16;;;;;;;0.90;0.90;;;;;;;-1.67;90.75;98509.28;4971479;28;20081;-88
2022/12/28 09:37:02;;;;;;;1.10;1.10;;;;;;;-1.68;91.04;98505.00;4957602;28;20066;-86
2022/12/28 09:39:30;;;;;;;0.90;0.90;;;;;;;-1.53;91.46;98513.81;4957784;28;20054;-87
2022/12/28 09:42:35;;;;;;;0.90;0.90;;;;;;;-1.36;91.02;98519.78;4956644;28;20056;-86
2022/12/28 09:45:05;;;;;;;0.73;0.73;;;;;;;-1.38;90.89;98517.31;4626781;28;10000476;-86
2022/12/28 09:47:48;;;;;;;1.00;1.00;;;;;;;-1.44;90.53;98515.38;4946999;28;20735;-87
2022/12/28 09:50:15;;;;;;;1.00;1.00;;;;;;;-1.50;90.71;98515.28;4980090;28;20456;-85
2022/12/28 09:53:14;;;;;;;1.02;1.02;;;;;;;-1.56;90.80;98516.81;4989111;28;20053;-86
2022/12/28 09:55:47;;;;;;;0.85;0.85;;;;;;;-1.53;91.21;98522.56;4991074;28;20050;-87
2022/12/28 09:58:15;;;;;;;0.90;0.90;;;;;;;-1.49;91.09;98530.97;4967077;28;20062;-87
2022/12/28 10:00:53;;;;;;;1.00;1.00;;;;;;;-1.48;91.17;98529.16;4978930;28;20672;-84
2022/12/28 10:03:34;;;;;;;0.90;0.90;;;;;;;-1.54;91.06;98528.88;4963236;28;20078;-82
2022/12/28 10:06:02;;;;;;;1.00;1.00;;;;;;;-1.58;91.10;98526.75;4962293;28;20876;-84
2022/12/28 10:08:30;;;;;;;0.82;0.82;;;;;;;-1.57;91.06;98528.38;4976593;28;20146;-85
2022/12/28 10:11:01;;;;;;;0.93;0.93;;;;;;;-1.51;91.01;98530.34;4951666;28;20054;-85
2022/12/28 10:13:36;;;;;;;1.10;1.10;;;;;;;-1.53;90.88;98529.69;4938271;28;20061;-85
2022/12/28 10:16:20;;;;;;;1.00;1.00;;;;;;;-1.55;91.13;98534.31;4979474;28;20525;-86
2022/12/28 10:18:48;;;;;;;1.08;1.08;;;;;;;-1.58;91.29;98532.03;4966323;28;20120;-87
2022/12/28 10:21:18;;;;;;;0.90;0.90;;;;;;;-1.49;91.25;98533.63;4990415;28;20581;-87
2022/12/28 10:23:47;;;;;;;1.00;1.00;;;;;;;-1.48;90.97;98545.84;5002205;28;20579;-86
2022/12/28 10:26:37;;;;;;;0.88;0.88;;;;;;;-1.58;90.52;98540.78;4993882;28;20152;-86
2022/12/28 10:29:12;;;;;;;1.10;1.10;;;;;;;-1.62;90.86;98530.75;4962346;28;20145;-86
2022/12/28 10:31:40;;;;;;;0.90;0.90;;;;;;;-1.63;91.05;98539.69;4967759;28;20655;-86
2022/12/28 10:34:16;;;;;;;0.90;0.90;;;;;;;-1.68;91.21;98534.09;4983541;28;20498;-85
2022/12/28 10:36:48;;;;;;;1.00;1.00;;;;;;;-1.75;91.55;98534.84;4966977;28;20050;-87
2022/12/28 10:39:21;;;;;;;0.93;0.93;;;;;;;-1.68;92.01;98540.22;4957475;28;20077;-87
2022/12/28 10:41:50;;;;;;;1.10;1.10;;;;;;;-1.59;92.03;98541.00;4967156;28;20116;-86
2022/12/28 10:44:34;;;;;;;0.93;0.93;;;;;;;-1.53;92.48;98540.28;4972838;28;20129;-86
2022/12/28 10:47:17;;;;;;;0.90;0.90;;;;;;;-1.51;92.36;98537.47;4977464;28;20433;-87
2022/12/28 10:49:50;;;;;;;1.00;1.00;;;;;;;-1.52;92.05;98544.56;4935891;28;20055;-87
2022/12/28 10:52:38;;;;;;;0.80;0.80;;;;;;;-1.44;92.72;98541.84;4957206;28;20046;-86
2022/12/28 10:55:31;;;;;;;0.88;0.88;;;;;;;-1.43;92.30;98543.50;4973887;28;20054;-86
2022/12/28 10:58:34;;;;;;;0.90;0.90;;;;;;;-1.43;92.56;98540.84;4972733;28;20046;-89
2022/12/28 11:01:03;;;;;;;0.93;0.93;;;;;;;-1.44;92.46;98539.22;4951587;29;20138;-87
2022/12/28 11:03:35;;;;;;;1.00;1.00;;;;;;;-1.40;92.88;98548.41;4936690;29;20051;-89
2022/12/28 11:06:22;;;;;;;0.80;0.80;;;;;;;-1.29;93.02;98541.91;4938565;28;20051;-88
2022/12/28 11:09:11;;;;;;;0.80;0.80;;;;;;;-1.33;92.98;98548.53;4961383;28;20051;-87
2022/12/28 11:11:41;;;;;;;0.88;0.88;;;;;;;-1.40;92.76;98551.06;4950142;29;20553;-87
2022/12/28 11:14:12;;;;;;;0.90;0.90;;;;;;;-1.37;93.17;98548.09;4950825;29;20211;-87
2022/12/28 11:16:40;;;;;;;1.05;1.05;;;;;;;-1.27;93.13;98552.28;4918560;28;20051;-87
2022/12/28 11:19:07;;;;;;;0.90;0.90;;;;;;;-1.36;93.10;98547.06;4956696;28;20051;-87
2022/12/28 11:21:36;;;;;;;1.00;1.00;;;;;;;-1.33;93.85;98562.59;4963906;28;20138;-86
2022/12/28 11:24:03;;;;;;;0.82;0.82;;;;;;;-1.36;93.63;98548.91;4948718;28;20039;-86
2022/12/28 11:26:32;;;;;;;0.90;0.90;;;;;;;-1.33;93.41;98549.34;4957034;28;20047;-85
2022/12/28 11:29:00;;;;;;;0.95;0.95;;;;;;;-1.39;93.39;98543.97;4949874;28;20174;-84
2022/12/28 11:31:34;;;;;;;0.95;0.95;;;;;;;-1.43;92.89;98548.78;4963163;28;20051;-85
2022/12/28 11:34:04;;;;;;;1.00;1.00;;;;;;;-1.48;92.51;98550.31;4959817;28;20046;-84
2022/12/28 11:36:36;;;;;;;0.70;0.70;;;;;;;-1.56;92.13;98548.56;4967745;28;20113;-86
2022/12/28 11:39:45;;;;;;;0.80;0.80;;;;;;;-1.61;91.54;98550.94;4975897;28;20426;-85
2022/12/28 11:42:31;;;;;;;0.88;0.88;;;;;;;-1.69;90.97;98556.28;4872466;29;20049;-88
2022/12/28 11:45:16;;;;;;;0.95;0.95;;;;;;;-1.79;91.01;98552.03;4893305;29;20076;-89
2022/12/28 11:47:44;;;;;;;0.93;0.93;;;;;;;-1.83;91.05;98553.38;4896721;29;20196;-86
2022/12/28 11:50:35;;;;;;;0.90;0.90;;;;;;;-1.85;91.16;98550.13;4881881;29;20107;-87
2022/12/28 11:53:29;;;;;;;0.90;0.90;;;;;;;-1.88;91.02;98550.44;4871548;29;20611;-85
2022/12/28 11:56:03;;;;;;;0.90;0.90;;;;;;;-1.91;90.83;98550.00;4841452;29;20433;-86
2022/12/28 11:58:42;;;;;;;0.98;0.98;;;;;;;-1.92;90.80;98550.97;4856346;29;20054;-86
2022/12/28 12:01:28;;;;;;;1.00;1.00;;;;;;;-1.93;90.83;98560.72;4855457;29;20058;-86
2022/12/28 12:03:55;;;;;;;0.80;0.80;;;;;;;-2.01;90.81;98566.91;4841446;29;20062;-86
2022/12/28 12:06:40;;;;;;;0.90;0.90;;;;;;;-1.99;91.03;98566.72;4840127;29;20137;-87
2022/12/28 12:09:22;;;;;;;0.90;0.90;;;;;;;-2.01;91.33;98571.38;4840992;29;20065;-84
2022/12/28 12:11:58;;;;;;;0.80;0.80;;;;;;;-1.97;91.48;98570.84;4842027;29;20088;-85
2022/12/28 12:14:35;;;;;;;0.80;0.80;;;;;;;-2.04;91.27;98572.53;4877631;29;20068;-86
2022/12/28 12:17:09;;;;;;;0.90;0.90;;;;;;;-2.05;91.21;98585.94;4894063;29;20703;-84
2022/12/28 12:19:40;;;;;;;0.80;0.80;;;;;;;-2.14;91.12;98585.16;4871573;29;20053;-85
2022/12/28 12:22:20;;;;;;;0.80;0.80;;;;;;;-2.14;91.36;98598.38;4894271;29;20056;-85
2022/12/28 12:25:14;;;;;;;0.90;0.90;;;;;;;-2.12;91.38;98587.63;4881016;29;20129;-85